sensor_id;sensor_type;location;lat;lon;timestamp;temperature;humidity
69895;DHT22;57172;52.034;5.090;2023-06-10T00:00:44;22.90;48.40
69895;DHT22;57172;52.034;5.090;2023-06-10T00:03:11;22.90;48.40
69895;DHT22;57172;52.034;5.090;2023-06-10T00:05:41;22.90;48.60
69895;DHT22;57172;52.034;5.090;2023-06-10T00:08:08;22.80;48.60
69895;DHT22;57172;52.034;5.090;2023-06-10T00:10:38;22.80;48.60
69895;DHT22;57172;52.034;5.090;2023-06-10T00:13:06;22.70;48.50
69895;DHT22;57172;52.034;5.090;2023-06-10T00:15:37;22.70;48.50
69895;DHT22;57172;52.034;5.090;2023-06-10T00:18:04;22.70;48.60
69895;DHT22;57172;52.034;5.090;2023-06-10T00:20:32;22.60;48.60
69895;DHT22;57172;52.034;5.090;2023-06-10T00:22:59;22.60;48.60
69895;DHT22;57172;52.034;5.090;2023-06-10T00:25:28;22.60;48.60
69895;DHT22;57172;52.034;5.090;2023-06-10T00:27:55;22.60;48.60
69895;DHT22;57172;52.034;5.090;2023-06-10T00:30:22;22.50;48.50
69895;DHT22;57172;52.034;5.090;2023-06-10T00:32:49;22.50;48.50
69895;DHT22;57172;52.034;5.090;2023-06-10T00:35:16;22.50;48.60
69895;DHT22;57172;52.034;5.090;2023-06-10T00:37:43;22.50;48.80
69895;DHT22;57172;52.034;5.090;2023-06-10T00:40:10;22.40;48.80
69895;DHT22;57172;52.034;5.090;2023-06-10T00:42:37;22.40;48.70
69895;DHT22;57172;52.034;5.090;2023-06-10T00:45:05;22.40;48.90
69895;DHT22;57172;52.034;5.090;2023-06-10T00:47:34;22.30;48.90
69895;DHT22;57172;52.034;5.090;2023-06-10T00:50:02;22.30;49.00
69895;DHT22;57172;52.034;5.090;2023-06-10T00:52:30;22.20;49.10
69895;DHT22;57172;52.034;5.090;2023-06-10T00:54:57;22.20;49.20
69895;DHT22;57172;52.034;5.090;2023-06-10T00:57:26;22.20;49.10
69895;DHT22;57172;52.034;5.090;2023-06-10T00:59:54;22.10;49.20
69895;DHT22;57172;52.034;5.090;2023-06-10T01:02:21;22.10;49.20
69895;DHT22;57172;52.034;5.090;2023-06-10T01:04:48;22.10;49.20
69895;DHT22;57172;52.034;5.090;2023-06-10T01:10:21;22.00;49.20
69895;DHT22;57172;52.034;5.090;2023-06-10T01:12:58;21.90;49.30
69895;DHT22;57172;52.034;5.090;2023-06-10T01:15:26;21.90;49.30
69895;DHT22;57172;52.034;5.090;2023-06-10T01:18:13;21.90;49.30
69895;DHT22;57172;52.034;5.090;2023-06-10T01:20:43;21.80;49.40
69895;DHT22;57172;52.034;5.090;2023-06-10T01:23:11;21.70;49.30
69895;DHT22;57172;52.034;5.090;2023-06-10T01:26:24;21.70;49.40
69895;DHT22;57172;52.034;5.090;2023-06-10T01:34:19;21.60;49.30
69895;DHT22;57172;52.034;5.090;2023-06-10T01:36:48;21.60;49.30
69895;DHT22;57172;52.034;5.090;2023-06-10T01:39:18;21.50;49.30
69895;DHT22;57172;52.034;5.090;2023-06-10T01:41:48;21.50;49.10
69895;DHT22;57172;52.034;5.090;2023-06-10T01:44:21;21.40;49.10
69895;DHT22;57172;52.034;5.090;2023-06-10T01:46:48;21.40;49.20
69895;DHT22;57172;52.034;5.090;2023-06-10T01:49:15;21.40;49.00
69895;DHT22;57172;52.034;5.090;2023-06-10T01:51:43;21.30;49.10
69895;DHT22;57172;52.034;5.090;2023-06-10T01:54:10;21.30;49.10
69895;DHT22;57172;52.034;5.090;2023-06-10T01:56:37;21.30;49.10
69895;DHT22;57172;52.034;5.090;2023-06-10T01:59:03;21.20;49.10
69895;DHT22;57172;52.034;5.090;2023-06-10T02:01:32;21.20;49.10
69895;DHT22;57172;52.034;5.090;2023-06-10T02:03:59;21.20;49.00
69895;DHT22;57172;52.034;5.090;2023-06-10T02:06:26;21.10;49.10
69895;DHT22;57172;52.034;5.090;2023-06-10T02:08:53;21.10;49.30
69895;DHT22;57172;52.034;5.090;2023-06-10T02:11:20;21.10;49.30
69895;DHT22;57172;52.034;5.090;2023-06-10T02:13:47;21.00;49.30
69895;DHT22;57172;52.034;5.090;2023-06-10T02:16:14;21.00;49.30
69895;DHT22;57172;52.034;5.090;2023-06-10T02:18:43;21.00;49.40
69895;DHT22;57172;52.034;5.090;2023-06-10T02:21:10;20.90;49.40
69895;DHT22;57172;52.034;5.090;2023-06-10T02:23:37;20.90;49.30
69895;DHT22;57172;52.034;5.090;2023-06-10T02:26:04;20.90;49.50
69895;DHT22;57172;52.034;5.090;2023-06-10T02:28:31;20.80;49.30
69895;DHT22;57172;52.034;5.090;2023-06-10T02:30:58;20.80;49.40
69895;DHT22;57172;52.034;5.090;2023-06-10T02:33:26;20.70;49.40
69895;DHT22;57172;52.034;5.090;2023-06-10T02:35:55;20.70;49.50
69895;DHT22;57172;52.034;5.090;2023-06-10T02:38:23;20.60;49.50
69895;DHT22;57172;52.034;5.090;2023-06-10T02:40:50;20.60;49.50
69895;DHT22;57172;52.034;5.090;2023-06-10T02:43:17;20.60;49.50
69895;DHT22;57172;52.034;5.090;2023-06-10T02:45:46;20.50;49.50
69895;DHT22;57172;52.034;5.090;2023-06-10T02:48:14;20.50;49.50
69895;DHT22;57172;52.034;5.090;2023-06-10T02:50:41;20.40;49.70
69895;DHT22;57172;52.034;5.090;2023-06-10T02:53:28;20.40;49.70
69895;DHT22;57172;52.034;5.090;2023-06-10T02:56:04;20.30;49.80
69895;DHT22;57172;52.034;5.090;2023-06-10T02:58:31;20.30;49.90
69895;DHT22;57172;52.034;5.090;2023-06-10T03:00:58;20.20;50.00
69895;DHT22;57172;52.034;5.090;2023-06-10T03:03:27;20.20;50.00
69895;DHT22;57172;52.034;5.090;2023-06-10T03:06:03;20.20;50.10
69895;DHT22;57172;52.034;5.090;2023-06-10T03:08:31;20.20;50.20
69895;DHT22;57172;52.034;5.090;2023-06-10T03:11:02;20.10;50.30
69895;DHT22;57172;52.034;5.090;2023-06-10T03:13:30;20.10;50.40
69895;DHT22;57172;52.034;5.090;2023-06-10T03:15:57;20.00;50.40
69895;DHT22;57172;52.034;5.090;2023-06-10T03:18:26;20.00;50.50
69895;DHT22;57172;52.034;5.090;2023-06-10T03:20:54;20.00;50.70
69895;DHT22;57172;52.034;5.090;2023-06-10T03:23:23;20.00;50.70
69895;DHT22;57172;52.034;5.090;2023-06-10T03:25:50;20.00;50.70
69895;DHT22;57172;52.034;5.090;2023-06-10T03:28:19;20.00;50.90
69895;DHT22;57172;52.034;5.090;2023-06-10T03:30:46;19.90;51.00
69895;DHT22;57172;52.034;5.090;2023-06-10T03:33:14;19.90;51.20
69895;DHT22;57172;52.034;5.090;2023-06-10T03:35:42;19.90;51.20
69895;DHT22;57172;52.034;5.090;2023-06-10T03:38:10;19.80;51.30
69895;DHT22;57172;52.034;5.090;2023-06-10T03:40:37;19.80;51.40
69895;DHT22;57172;52.034;5.090;2023-06-10T03:43:06;19.80;51.60
69895;DHT22;57172;52.034;5.090;2023-06-10T03:45:33;19.80;51.70
69895;DHT22;57172;52.034;5.090;2023-06-10T03:48:01;19.80;51.80
69895;DHT22;57172;52.034;5.090;2023-06-10T03:50:36;19.80;51.80
69895;DHT22;57172;52.034;5.090;2023-06-10T03:53:03;19.80;52.00
69895;DHT22;57172;52.034;5.090;2023-06-10T03:55:31;19.80;52.10
69895;DHT22;57172;52.034;5.090;2023-06-10T03:57:59;19.80;52.20
69895;DHT22;57172;52.034;5.090;2023-06-10T04:00:26;19.80;52.40
69895;DHT22;57172;52.034;5.090;2023-06-10T04:02:53;19.80;52.50
69895;DHT22;57172;52.034;5.090;2023-06-10T04:05:29;19.80;52.50
69895;DHT22;57172;52.034;5.090;2023-06-10T04:07:57;19.80;52.60
69895;DHT22;57172;52.034;5.090;2023-06-10T04:10:24;19.80;52.70
69895;DHT22;57172;52.034;5.090;2023-06-10T04:12:51;19.80;52.80
69895;DHT22;57172;52.034;5.090;2023-06-10T04:15:18;19.80;52.90
69895;DHT22;57172;52.034;5.090;2023-06-10T04:17:46;19.80;52.90
69895;DHT22;57172;52.034;5.090;2023-06-10T04:20:14;19.80;53.00
69895;DHT22;57172;52.034;5.090;2023-06-10T04:22:44;19.80;53.10
69895;DHT22;57172;52.034;5.090;2023-06-10T04:25:11;19.80;53.20
69895;DHT22;57172;52.034;5.090;2023-06-10T04:27:40;19.80;53.40
69895;DHT22;57172;52.034;5.090;2023-06-10T04:30:07;19.80;53.40
69895;DHT22;57172;52.034;5.090;2023-06-10T04:32:36;19.80;53.50
69895;DHT22;57172;52.034;5.090;2023-06-10T04:35:06;19.80;53.50
69895;DHT22;57172;52.034;5.090;2023-06-10T04:37:34;19.90;53.60
69895;DHT22;57172;52.034;5.090;2023-06-10T04:40:01;19.90;53.70
69895;DHT22;57172;52.034;5.090;2023-06-10T04:42:28;19.90;53.80
69895;DHT22;57172;52.034;5.090;2023-06-10T04:44:56;19.90;53.80
69895;DHT22;57172;52.034;5.090;2023-06-10T04:47:23;20.00;53.80
69895;DHT22;57172;52.034;5.090;2023-06-10T04:49:50;20.00;53.90
69895;DHT22;57172;52.034;5.090;2023-06-10T04:52:18;20.00;54.00
69895;DHT22;57172;52.034;5.090;2023-06-10T04:54:45;20.00;54.10
69895;DHT22;57172;52.034;5.090;2023-06-10T04:57:12;20.00;54.10
69895;DHT22;57172;52.034;5.090;2023-06-10T04:59:39;20.10;54.20
69895;DHT22;57172;52.034;5.090;2023-06-10T05:02:06;20.10;54.10
69895;DHT22;57172;52.034;5.090;2023-06-10T05:04:33;20.10;54.10
69895;DHT22;57172;52.034;5.090;2023-06-10T05:07:00;20.20;54.30
69895;DHT22;57172;52.034;5.090;2023-06-10T05:09:27;20.20;54.30
69895;DHT22;57172;52.034;5.090;2023-06-10T05:11:54;20.30;54.20
69895;DHT22;57172;52.034;5.090;2023-06-10T05:14:21;20.30;54.20
69895;DHT22;57172;52.034;5.090;2023-06-10T05:16:48;20.30;54.20
69895;DHT22;57172;52.034;5.090;2023-06-10T05:19:15;20.40;54.20
69895;DHT22;57172;52.034;5.090;2023-06-10T05:21:45;20.40;54.30
69895;DHT22;57172;52.034;5.090;2023-06-10T05:24:12;20.50;54.20
69895;DHT22;57172;52.034;5.090;2023-06-10T05:26:39;20.50;54.30
69895;DHT22;57172;52.034;5.090;2023-06-10T05:29:08;20.60;54.20
69895;DHT22;57172;52.034;5.090;2023-06-10T05:31:36;20.60;54.10
69895;DHT22;57172;52.034;5.090;2023-06-10T05:34:03;20.60;54.30
69895;DHT22;57172;52.034;5.090;2023-06-10T05:36:29;20.70;54.10
69895;DHT22;57172;52.034;5.090;2023-06-10T05:38:56;20.70;54.10
69895;DHT22;57172;52.034;5.090;2023-06-10T05:41:23;20.80;54.00
69895;DHT22;57172;52.034;5.090;2023-06-10T05:43:50;20.90;53.90
69895;DHT22;57172;52.034;5.090;2023-06-10T05:46:17;20.90;53.80
69895;DHT22;57172;52.034;5.090;2023-06-10T05:48:44;21.00;53.70
69895;DHT22;57172;52.034;5.090;2023-06-10T05:51:11;21.00;53.80
69895;DHT22;57172;52.034;5.090;2023-06-10T05:53:38;21.10;53.60
69895;DHT22;57172;52.034;5.090;2023-06-10T05:56:05;21.10;53.50
69895;DHT22;57172;52.034;5.090;2023-06-10T05:58:32;21.20;53.40
69895;DHT22;57172;52.034;5.090;2023-06-10T06:00:58;21.20;53.40
69895;DHT22;57172;52.034;5.090;2023-06-10T06:03:26;21.30;53.40
69895;DHT22;57172;52.034;5.090;2023-06-10T06:05:55;21.30;53.40
69895;DHT22;57172;52.034;5.090;2023-06-10T06:08:22;21.40;53.30
69895;DHT22;57172;52.034;5.090;2023-06-10T06:10:50;21.50;53.30
69895;DHT22;57172;52.034;5.090;2023-06-10T06:13:16;21.50;53.10
69895;DHT22;57172;52.034;5.090;2023-06-10T06:15:43;21.60;53.10
69895;DHT22;57172;52.034;5.090;2023-06-10T06:18:10;21.70;53.00
69895;DHT22;57172;52.034;5.090;2023-06-10T06:20:37;21.80;52.90
69895;DHT22;57172;52.034;5.090;2023-06-10T06:23:04;21.80;53.00
69895;DHT22;57172;52.034;5.090;2023-06-10T06:25:31;21.90;52.70
69895;DHT22;57172;52.034;5.090;2023-06-10T06:27:58;21.90;52.50
69895;DHT22;57172;52.034;5.090;2023-06-10T06:30:25;22.00;52.50
69895;DHT22;57172;52.034;5.090;2023-06-10T06:32:53;22.10;52.50
69895;DHT22;57172;52.034;5.090;2023-06-10T06:35:20;22.20;52.50
69895;DHT22;57172;52.034;5.090;2023-06-10T06:37:46;22.20;52.50
69895;DHT22;57172;52.034;5.090;2023-06-10T06:40:18;22.30;52.30
69895;DHT22;57172;52.034;5.090;2023-06-10T06:42:46;22.40;52.20
69895;DHT22;57172;52.034;5.090;2023-06-10T06:45:22;22.50;52.10
69895;DHT22;57172;52.034;5.090;2023-06-10T06:47:48;22.60;51.80
69895;DHT22;57172;52.034;5.090;2023-06-10T06:50:16;22.70;51.80
69895;DHT22;57172;52.034;5.090;2023-06-10T06:52:43;22.80;51.70
69895;DHT22;57172;52.034;5.090;2023-06-10T06:55:10;22.90;51.70
69895;DHT22;57172;52.034;5.090;2023-06-10T06:57:37;23.00;51.50
69895;DHT22;57172;52.034;5.090;2023-06-10T07:00:05;23.10;51.40
69895;DHT22;57172;52.034;5.090;2023-06-10T07:02:32;23.10;51.00
69895;DHT22;57172;52.034;5.090;2023-06-10T07:05:00;23.20;51.00
69895;DHT22;57172;52.034;5.090;2023-06-10T07:07:27;23.20;51.00
69895;DHT22;57172;52.034;5.090;2023-06-10T07:09:54;23.30;50.80
69895;DHT22;57172;52.034;5.090;2023-06-10T07:12:21;23.40;50.90
69895;DHT22;57172;52.034;5.090;2023-06-10T07:14:51;23.60;50.70
69895;DHT22;57172;52.034;5.090;2023-06-10T07:17:17;23.70;50.70
69895;DHT22;57172;52.034;5.090;2023-06-10T07:19:45;23.80;50.50
69895;DHT22;57172;52.034;5.090;2023-06-10T07:22:12;23.90;50.30
69895;DHT22;57172;52.034;5.090;2023-06-10T07:24:39;24.00;50.20
69895;DHT22;57172;52.034;5.090;2023-06-10T07:27:06;24.00;50.00
69895;DHT22;57172;52.034;5.090;2023-06-10T07:29:33;24.10;50.20
69895;DHT22;57172;52.034;5.090;2023-06-10T07:32:03;24.20;50.10
69895;DHT22;57172;52.034;5.090;2023-06-10T07:34:30;24.30;50.30
69895;DHT22;57172;52.034;5.090;2023-06-10T07:36:57;24.40;50.00
69895;DHT22;57172;52.034;5.090;2023-06-10T07:39:24;24.50;49.80
69895;DHT22;57172;52.034;5.090;2023-06-10T07:41:51;24.70;49.60
69895;DHT22;57172;52.034;5.090;2023-06-10T07:44:20;24.70;49.30
69895;DHT22;57172;52.034;5.090;2023-06-10T07:46:47;24.90;49.40
69895;DHT22;57172;52.034;5.090;2023-06-10T07:49:14;25.00;49.20
69895;DHT22;57172;52.034;5.090;2023-06-10T07:51:41;25.10;48.70
69895;DHT22;57172;52.034;5.090;2023-06-10T07:54:08;25.20;48.20
69895;DHT22;57172;52.034;5.090;2023-06-10T07:56:35;25.30;47.90
69895;DHT22;57172;52.034;5.090;2023-06-10T07:59:02;25.30;48.00
69895;DHT22;57172;52.034;5.090;2023-06-10T08:01:29;25.40;47.50
69895;DHT22;57172;52.034;5.090;2023-06-10T08:03:57;25.50;47.40
69895;DHT22;57172;52.034;5.090;2023-06-10T08:06:25;25.60;47.20
69895;DHT22;57172;52.034;5.090;2023-06-10T08:08:52;25.70;47.30
69895;DHT22;57172;52.034;5.090;2023-06-10T08:11:18;25.90;47.00
69895;DHT22;57172;52.034;5.090;2023-06-10T08:13:45;26.00;46.70
69895;DHT22;57172;52.034;5.090;2023-06-10T08:16:12;26.10;46.80
69895;DHT22;57172;52.034;5.090;2023-06-10T08:18:39;26.20;46.30
69895;DHT22;57172;52.034;5.090;2023-06-10T08:21:06;26.40;46.10
69895;DHT22;57172;52.034;5.090;2023-06-10T08:23:33;26.50;45.70
69895;DHT22;57172;52.034;5.090;2023-06-10T08:26:00;26.60;45.50
69895;DHT22;57172;52.034;5.090;2023-06-10T08:28:27;26.70;45.70
69895;DHT22;57172;52.034;5.090;2023-06-10T08:30:54;26.90;45.40
69895;DHT22;57172;52.034;5.090;2023-06-10T08:33:23;27.00;45.30
69895;DHT22;57172;52.034;5.090;2023-06-10T08:35:50;27.10;45.30
69895;DHT22;57172;52.034;5.090;2023-06-10T08:38:17;27.20;44.80
69895;DHT22;57172;52.034;5.090;2023-06-10T08:40:44;27.40;44.30
69895;DHT22;57172;52.034;5.090;2023-06-10T08:43:31;27.50;44.00
69895;DHT22;57172;52.034;5.090;2023-06-10T08:46:01;27.60;43.90
69895;DHT22;57172;52.034;5.090;2023-06-10T08:48:29;27.90;44.50
69895;DHT22;57172;52.034;5.090;2023-06-10T08:50:59;28.30;44.70
69895;DHT22;57172;52.034;5.090;2023-06-10T08:53:28;29.00;44.50
69895;DHT22;57172;52.034;5.090;2023-06-10T08:55:58;29.70;43.00
69895;DHT22;57172;52.034;5.090;2023-06-10T08:58:27;30.30;41.30
69895;DHT22;57172;52.034;5.090;2023-06-10T09:00:55;30.90;41.30
69895;DHT22;57172;52.034;5.090;2023-06-10T09:03:23;31.50;40.10
69895;DHT22;57172;52.034;5.090;2023-06-10T09:05:51;32.00;39.50
69895;DHT22;57172;52.034;5.090;2023-06-10T09:08:18;32.60;38.30
69895;DHT22;57172;52.034;5.090;2023-06-10T09:10:45;33.10;37.60
69895;DHT22;57172;52.034;5.090;2023-06-10T09:13:12;33.50;36.60
69895;DHT22;57172;52.034;5.090;2023-06-10T09:15:42;34.00;36.10
69895;DHT22;57172;52.034;5.090;2023-06-10T09:18:09;34.50;35.70
69895;DHT22;57172;52.034;5.090;2023-06-10T09:20:36;35.10;34.70
69895;DHT22;57172;52.034;5.090;2023-06-10T09:23:05;35.40;34.10
69895;DHT22;57172;52.034;5.090;2023-06-10T09:25:37;35.80;33.60
69895;DHT22;57172;52.034;5.090;2023-06-10T09:28:08;36.10;33.30
69895;DHT22;57172;52.034;5.090;2023-06-10T09:30:39;36.60;32.60
69895;DHT22;57172;52.034;5.090;2023-06-10T09:33:13;37.00;31.90
69895;DHT22;57172;52.034;5.090;2023-06-10T09:35:46;37.30;31.40
69895;DHT22;57172;52.034;5.090;2023-06-10T09:38:15;37.80;31.30
69895;DHT22;57172;52.034;5.090;2023-06-10T09:40:50;38.20;30.90
69895;DHT22;57172;52.034;5.090;2023-06-10T09:43:18;38.60;30.00
69895;DHT22;57172;52.034;5.090;2023-06-10T09:45:51;38.80;29.90
69895;DHT22;57172;52.034;5.090;2023-06-10T09:48:21;38.90;29.10
69895;DHT22;57172;52.034;5.090;2023-06-10T09:50:50;38.90;28.90
69895;DHT22;57172;52.034;5.090;2023-06-10T09:53:17;39.00;29.10
69895;DHT22;57172;52.034;5.090;2023-06-10T09:55:44;39.30;29.30
69895;DHT22;57172;52.034;5.090;2023-06-10T09:58:11;39.70;28.90
69895;DHT22;57172;52.034;5.090;2023-06-10T10:00:38;40.00;28.40
69895;DHT22;57172;52.034;5.090;2023-06-10T10:03:05;40.10;27.40
69895;DHT22;57172;52.034;5.090;2023-06-10T10:05:33;40.00;27.60
69895;DHT22;57172;52.034;5.090;2023-06-10T10:08:00;40.20;27.50
69895;DHT22;57172;52.034;5.090;2023-06-10T10:10:27;40.50;27.20
69895;DHT22;57172;52.034;5.090;2023-06-10T10:12:55;40.60;26.60
69895;DHT22;57172;52.034;5.090;2023-06-10T10:15:25;40.50;26.30
69895;DHT22;57172;52.034;5.090;2023-06-10T10:18:05;40.40;26.80
69895;DHT22;57172;52.034;5.090;2023-06-10T10:20:34;40.50;27.00
69895;DHT22;57172;52.034;5.090;2023-06-10T10:23:04;40.70;26.20
69895;DHT22;57172;52.034;5.090;2023-06-10T10:25:38;40.80;26.50
69895;DHT22;57172;52.034;5.090;2023-06-10T10:28:11;41.10;26.20
69895;DHT22;57172;52.034;5.090;2023-06-10T10:30:50;41.50;25.90
69895;DHT22;57172;52.034;5.090;2023-06-10T10:33:25;42.00;25.70
69895;DHT22;57172;52.034;5.090;2023-06-10T10:35:56;42.40;24.70
69895;DHT22;57172;52.034;5.090;2023-06-10T10:38:24;42.20;24.50
69895;DHT22;57172;52.034;5.090;2023-06-10T10:40:52;42.00;24.50
69895;DHT22;57172;52.034;5.090;2023-06-10T10:43:19;42.00;24.70
69895;DHT22;57172;52.034;5.090;2023-06-10T10:46:00;42.10;24.90
69895;DHT22;57172;52.034;5.090;2023-06-10T10:48:33;42.30;24.80
69895;DHT22;57172;52.034;5.090;2023-06-10T10:51:01;42.60;24.40
69895;DHT22;57172;52.034;5.090;2023-06-10T10:53:29;42.70;23.50
69895;DHT22;57172;52.034;5.090;2023-06-10T10:56:15;42.30;23.80
69895;DHT22;57172;52.034;5.090;2023-06-10T10:59:05;42.00;24.30
69895;DHT22;57172;52.034;5.090;2023-06-10T11:01:42;42.10;24.10
69895;DHT22;57172;52.034;5.090;2023-06-10T11:04:12;42.40;24.10
69895;DHT22;57172;52.034;5.090;2023-06-10T11:06:40;42.60;23.60
69895;DHT22;57172;52.034;5.090;2023-06-10T11:09:28;42.60;24.00
69895;DHT22;57172;52.034;5.090;2023-06-10T11:11:58;42.90;23.90
69895;DHT22;57172;52.034;5.090;2023-06-10T11:14:27;43.20;23.60
69895;DHT22;57172;52.034;5.090;2023-06-10T11:16:58;43.50;23.20
69895;DHT22;57172;52.034;5.090;2023-06-10T11:19:32;43.70;23.00
69895;DHT22;57172;52.034;5.090;2023-06-10T11:22:02;43.70;22.90
69895;DHT22;57172;52.034;5.090;2023-06-10T11:24:30;43.50;23.00
69895;DHT22;57172;52.034;5.090;2023-06-10T11:27:16;43.70;23.20
69895;DHT22;57172;52.034;5.090;2023-06-10T11:32:33;43.80;22.90
69895;DHT22;57172;52.034;5.090;2023-06-10T11:35:05;44.00;23.00
69895;DHT22;57172;52.034;5.090;2023-06-10T11:37:34;44.30;22.90
69895;DHT22;57172;52.034;5.090;2023-06-10T11:40:02;44.70;22.60
69895;DHT22;57172;52.034;5.090;2023-06-10T11:42:29;44.90;22.30
69895;DHT22;57172;52.034;5.090;2023-06-10T11:44:56;44.90;22.30
69895;DHT22;57172;52.034;5.090;2023-06-10T11:47:23;45.00;22.30
69895;DHT22;57172;52.034;5.090;2023-06-10T11:49:56;45.20;22.30
69895;DHT22;57172;52.034;5.090;2023-06-10T11:52:30;45.20;21.80
69895;DHT22;57172;52.034;5.090;2023-06-10T11:55:00;45.00;21.70
69895;DHT22;57172;52.034;5.090;2023-06-10T11:57:27;44.80;21.70
69895;DHT22;57172;52.034;5.090;2023-06-10T11:59:54;44.80;21.80
69895;DHT22;57172;52.034;5.090;2023-06-10T12:02:21;44.90;21.90
69895;DHT22;57172;52.034;5.090;2023-06-10T12:04:49;45.10;21.80
69895;DHT22;57172;52.034;5.090;2023-06-10T12:07:19;45.30;21.80
69895;DHT22;57172;52.034;5.090;2023-06-10T12:09:58;45.50;21.50
69895;DHT22;57172;52.034;5.090;2023-06-10T12:12:44;45.70;21.40
69895;DHT22;57172;52.034;5.090;2023-06-10T12:15:23;45.90;21.00
69895;DHT22;57172;52.034;5.090;2023-06-10T12:17:51;45.50;20.70
69895;DHT22;57172;52.034;5.090;2023-06-10T12:20:32;45.10;21.00
69895;DHT22;57172;52.034;5.090;2023-06-10T12:23:09;44.80;21.40
69895;DHT22;57172;52.034;5.090;2023-06-10T12:25:36;44.80;21.10
69895;DHT22;57172;52.034;5.090;2023-06-10T12:28:10;44.70;21.40
69895;DHT22;57172;52.034;5.090;2023-06-10T12:30:37;44.90;21.40
69895;DHT22;57172;52.034;5.090;2023-06-10T12:33:04;45.10;21.60
69895;DHT22;57172;52.034;5.090;2023-06-10T12:35:31;45.40;21.10
69895;DHT22;57172;52.034;5.090;2023-06-10T12:38:02;45.10;20.90
69895;DHT22;57172;52.034;5.090;2023-06-10T12:40:33;44.60;20.50
69895;DHT22;57172;52.034;5.090;2023-06-10T12:43:00;44.20;21.40
69895;DHT22;57172;52.034;5.090;2023-06-10T12:45:28;44.20;21.60
69895;DHT22;57172;52.034;5.090;2023-06-10T12:50:52;44.50;21.60
69895;DHT22;57172;52.034;5.090;2023-06-10T12:53:20;44.50;21.30
69895;DHT22;57172;52.034;5.090;2023-06-10T12:55:47;44.60;21.50
69895;DHT22;57172;52.034;5.090;2023-06-10T12:58:15;44.70;21.40
69895;DHT22;57172;52.034;5.090;2023-06-10T13:00:42;44.90;21.30
69895;DHT22;57172;52.034;5.090;2023-06-10T13:03:09;45.10;20.90
69895;DHT22;57172;52.034;5.090;2023-06-10T13:05:37;45.20;20.90
69895;DHT22;57172;52.034;5.090;2023-06-10T13:08:06;45.20;20.80
69895;DHT22;57172;52.034;5.090;2023-06-10T13:10:42;45.20;20.70
69895;DHT22;57172;52.034;5.090;2023-06-10T13:13:09;45.10;20.30
69895;DHT22;57172;52.034;5.090;2023-06-10T13:15:37;44.80;20.90
69895;DHT22;57172;52.034;5.090;2023-06-10T13:18:09;44.80;20.80
69895;DHT22;57172;52.034;5.090;2023-06-10T13:20:36;44.50;20.40
69895;DHT22;57172;52.034;5.090;2023-06-10T13:23:03;44.30;20.70
69895;DHT22;57172;52.034;5.090;2023-06-10T13:25:30;44.20;20.80
69895;DHT22;57172;52.034;5.090;2023-06-10T13:27:57;44.10;20.80
69895;DHT22;57172;52.034;5.090;2023-06-10T13:30:24;44.00;20.70
69895;DHT22;57172;52.034;5.090;2023-06-10T13:32:51;43.80;20.70
69895;DHT22;57172;52.034;5.090;2023-06-10T13:35:18;43.80;21.00
69895;DHT22;57172;52.034;5.090;2023-06-10T13:37:45;43.90;20.80
69895;DHT22;57172;52.034;5.090;2023-06-10T13:40:12;44.00;21.10
69895;DHT22;57172;52.034;5.090;2023-06-10T13:42:39;44.10;20.70
69895;DHT22;57172;52.034;5.090;2023-06-10T13:45:06;44.10;20.90
69895;DHT22;57172;52.034;5.090;2023-06-10T13:47:34;44.00;21.00
69895;DHT22;57172;52.034;5.090;2023-06-10T13:50:01;44.10;20.90
69895;DHT22;57172;52.034;5.090;2023-06-10T13:52:28;44.30;20.90
69895;DHT22;57172;52.034;5.090;2023-06-10T13:54:55;44.50;20.90
69895;DHT22;57172;52.034;5.090;2023-06-10T13:57:22;44.80;20.60
69895;DHT22;57172;52.034;5.090;2023-06-10T13:59:49;44.90;20.60
69895;DHT22;57172;52.034;5.090;2023-06-10T14:02:16;44.90;20.50
69895;DHT22;57172;52.034;5.090;2023-06-10T14:04:43;44.90;20.30
69895;DHT22;57172;52.034;5.090;2023-06-10T14:07:10;44.80;20.50
69895;DHT22;57172;52.034;5.090;2023-06-10T14:09:37;44.70;20.50
69895;DHT22;57172;52.034;5.090;2023-06-10T14:12:04;44.50;20.40
69895;DHT22;57172;52.034;5.090;2023-06-10T14:14:31;44.30;20.20
69895;DHT22;57172;52.034;5.090;2023-06-10T14:16:59;43.90;20.40
69895;DHT22;57172;52.034;5.090;2023-06-10T14:19:27;43.70;20.70
69895;DHT22;57172;52.034;5.090;2023-06-10T14:21:54;43.40;20.90
69895;DHT22;57172;52.034;5.090;2023-06-10T14:24:22;43.20;20.90
69895;DHT22;57172;52.034;5.090;2023-06-10T14:26:49;43.10;21.40
69895;DHT22;57172;52.034;5.090;2023-06-10T14:29:16;43.00;21.30
69895;DHT22;57172;52.034;5.090;2023-06-10T14:31:43;42.90;21.30
69895;DHT22;57172;52.034;5.090;2023-06-10T14:34:10;42.80;21.50
69895;DHT22;57172;52.034;5.090;2023-06-10T14:36:37;42.90;21.70
69895;DHT22;57172;52.034;5.090;2023-06-10T14:39:04;43.00;21.50
69895;DHT22;57172;52.034;5.090;2023-06-10T14:41:31;43.00;21.30
69895;DHT22;57172;52.034;5.090;2023-06-10T14:43:58;42.80;21.40
69895;DHT22;57172;52.034;5.090;2023-06-10T14:46:25;42.70;21.40
69895;DHT22;57172;52.034;5.090;2023-06-10T14:48:52;42.30;21.30
69895;DHT22;57172;52.034;5.090;2023-06-10T14:51:19;42.10;21.90
69895;DHT22;57172;52.034;5.090;2023-06-10T14:53:47;42.10;22.00
69895;DHT22;57172;52.034;5.090;2023-06-10T14:56:14;42.10;22.10
69895;DHT22;57172;52.034;5.090;2023-06-10T14:58:41;42.20;22.00
69895;DHT22;57172;52.034;5.090;2023-06-10T15:01:08;42.00;22.10
69895;DHT22;57172;52.034;5.090;2023-06-10T15:03:35;42.00;22.10
69895;DHT22;57172;52.034;5.090;2023-06-10T15:06:02;42.00;22.00
69895;DHT22;57172;52.034;5.090;2023-06-10T15:08:29;42.00;21.90
69895;DHT22;57172;52.034;5.090;2023-06-10T15:10:56;41.90;22.00
69895;DHT22;57172;52.034;5.090;2023-06-10T15:13:24;41.80;22.00
69895;DHT22;57172;52.034;5.090;2023-06-10T15:15:51;41.70;22.10
69895;DHT22;57172;52.034;5.090;2023-06-10T15:18:18;41.70;22.10
69895;DHT22;57172;52.034;5.090;2023-06-10T15:20:45;41.50;22.30
69895;DHT22;57172;52.034;5.090;2023-06-10T15:23:11;41.30;22.30
69895;DHT22;57172;52.034;5.090;2023-06-10T15:25:38;41.10;22.40
69895;DHT22;57172;52.034;5.090;2023-06-10T15:28:07;40.80;22.60
69895;DHT22;57172;52.034;5.090;2023-06-10T15:30:34;40.80;22.70
69895;DHT22;57172;52.034;5.090;2023-06-10T15:33:01;40.80;22.70
69895;DHT22;57172;52.034;5.090;2023-06-10T15:35:28;40.80;22.50
69895;DHT22;57172;52.034;5.090;2023-06-10T15:37:55;40.80;22.70
69895;DHT22;57172;52.034;5.090;2023-06-10T15:40:22;40.70;22.60
69895;DHT22;57172;52.034;5.090;2023-06-10T15:42:49;40.50;22.60
69895;DHT22;57172;52.034;5.090;2023-06-10T15:45:16;40.30;22.70
69895;DHT22;57172;52.034;5.090;2023-06-10T15:47:43;40.20;22.90
69895;DHT22;57172;52.034;5.090;2023-06-10T15:50:10;40.10;23.00
69895;DHT22;57172;52.034;5.090;2023-06-10T15:52:37;40.10;23.20